createdAt,value
2018-11-03T00:00:05.077Z,1023.58
2018-11-03T00:01:13.991Z,1023.53
2018-11-03T00:02:22.900Z,1023.51
2018-11-03T00:03:31.532Z,1023.5
2018-11-03T00:04:40.172Z,1023.52
2018-11-03T00:05:48.811Z,1023.52
2018-11-03T00:06:57.449Z,1023.54
2018-11-03T00:08:06.084Z,1023.55
2018-11-03T00:09:14.988Z,1023.54
2018-11-03T00:10:23.623Z,1023.5
2018-11-03T00:11:32.855Z,1023.49
2018-11-03T00:12:41.496Z,1023.47
2018-11-03T00:13:50.128Z,1023.48
2018-11-03T00:14:58.761Z,1023.5
2018-11-03T00:16:07.400Z,1023.48
2018-11-03T00:17:16.040Z,1023.49
2018-11-03T00:18:24.672Z,1023.52
2018-11-03T00:19:33.308Z,1023.56
2018-11-03T00:20:41.942Z,1023.52
2018-11-03T00:21:50.582Z,1023.59
2018-11-03T00:22:59.492Z,1023.63
2018-11-03T00:24:08.128Z,1023.61
2018-11-03T00:25:16.764Z,1023.61
2018-11-03T00:26:25.398Z,1023.59
2018-11-03T00:27:34.038Z,1023.62
2018-11-03T00:28:42.673Z,1023.64
2018-11-03T00:29:51.311Z,1023.63
2018-11-03T00:31:00.216Z,1023.66
2018-11-03T00:32:08.857Z,1023.63
2018-11-03T00:33:17.486Z,1023.59
2018-11-03T00:34:26.122Z,1023.55
2018-11-03T00:35:34.755Z,1023.52
2018-11-03T00:36:43.399Z,1023.55
2018-11-03T00:37:52.306Z,1023.51
2018-11-03T00:39:00.943Z,1023.51
2018-11-03T00:40:09.571Z,1023.53
2018-11-03T00:41:18.209Z,1023.54
2018-11-03T00:42:26.851Z,1023.49
2018-11-03T00:43:35.487Z,1023.47
2018-11-03T00:44:44.123Z,1023.45
2018-11-03T00:45:53.023Z,1023.45
2018-11-03T00:47:01.664Z,1023.44
2018-11-03T00:48:10.558Z,1023.43
2018-11-03T00:49:19.476Z,1023.44
2018-11-03T00:50:28.104Z,1023.45
2018-11-03T00:51:36.739Z,1023.44
2018-11-03T00:52:45.374Z,1023.45
2018-11-03T00:53:54.015Z,1023.47
2018-11-03T00:55:02.640Z,1023.5
2018-11-03T00:56:11.278Z,1023.5
2018-11-03T00:57:19.909Z,1023.49
2018-11-03T00:58:28.553Z,1023.5
2018-11-03T00:59:37.186Z,1023.49
2018-11-03T01:00:45.818Z,1023.49
2018-11-03T01:01:54.452Z,1023.51
2018-11-03T01:03:03.085Z,1023.52
2018-11-03T01:04:11.730Z,1023.52
2018-11-03T01:05:20.363Z,1023.5
2018-11-03T01:06:29.018Z,1023.55
2018-11-03T01:07:37.636Z,1023.53
2018-11-03T01:08:46.284Z,1023.52
2018-11-03T01:09:54.910Z,1023.51
2018-11-03T01:11:03.550Z,1023.5
2018-11-03T01:12:12.177Z,1023.53
2018-11-03T01:13:20.820Z,1023.5
2018-11-03T01:14:29.451Z,1023.52
2018-11-03T01:15:38.083Z,1023.52
2018-11-03T01:16:46.713Z,1023.53
2018-11-03T01:17:55.349Z,1023.53
2018-11-03T01:19:03.991Z,1023.54
2018-11-03T01:20:12.890Z,1023.54
2018-11-03T01:21:21.531Z,1023.55
2018-11-03T01:22:30.157Z,1023.57
2018-11-03T01:23:38.856Z,1023.56
2018-11-03T01:24:47.424Z,1023.6
2018-11-03T01:25:56.068Z,1023.6
2018-11-03T01:27:04.693Z,1023.61
2018-11-03T01:28:13.334Z,1023.62
2018-11-03T01:29:21.967Z,1023.67
2018-11-03T01:30:30.616Z,1023.66
2018-11-03T01:31:39.242Z,1023.68
2018-11-03T01:32:47.880Z,1023.67
2018-11-03T01:33:56.925Z,1023.65
2018-11-03T01:35:05.568Z,1023.67
2018-11-03T01:36:14.467Z,1023.65
2018-11-03T01:37:23.099Z,1023.66
2018-11-03T01:38:31.734Z,1023.64
2018-11-03T01:39:40.365Z,1023.66
2018-11-03T01:40:49.006Z,1023.63
2018-11-03T01:41:57.643Z,1023.61
2018-11-03T01:43:06.279Z,1023.6
2018-11-03T01:44:14.910Z,1023.59
2018-11-03T01:45:23.548Z,1023.6
2018-11-03T01:46:32.183Z,1023.63
2018-11-03T01:47:40.817Z,1023.6
2018-11-03T01:48:49.471Z,1023.63
2018-11-03T01:49:58.369Z,1023.58
2018-11-03T01:51:07.274Z,1023.53
2018-11-03T01:52:15.908Z,1023.55
2018-11-03T01:53:24.538Z,1023.55
2018-11-03T01:54:33.180Z,1023.54
2018-11-03T01:55:41.814Z,1023.55
2018-11-03T01:56:50.451Z,1023.58
2018-11-03T01:57:59.091Z,1023.63
2018-11-03T01:59:07.721Z,1023.58
2018-11-03T02:00:16.357Z,1023.58
2018-11-03T02:01:25.001Z,1023.58
2018-11-03T02:02:33.914Z,1023.59
2018-11-03T02:03:43.087Z,1023.61
2018-11-03T02:04:51.718Z,1023.61
2018-11-03T02:06:00.355Z,1023.55
2018-11-03T02:07:09.001Z,1023.53
2018-11-03T02:08:17.632Z,1023.54
2018-11-03T02:09:26.270Z,1023.53
2018-11-03T02:10:34.903Z,1023.55
2018-11-03T02:11:43.810Z,1023.54
2018-11-03T02:12:52.444Z,1023.52
2018-11-03T02:14:01.082Z,1023.57
2018-11-03T02:15:09.982Z,1023.6
2018-11-03T02:16:18.616Z,1023.56
2018-11-03T02:17:27.256Z,1023.6
2018-11-03T02:18:35.892Z,1023.55
2018-11-03T02:19:44.532Z,1023.57
2018-11-03T02:20:53.434Z,1023.56
2018-11-03T02:22:02.342Z,1023.58
2018-11-03T02:23:10.977Z,1023.52
2018-11-03T02:24:19.613Z,1023.51
2018-11-03T02:25:28.241Z,1023.47
2018-11-03T02:26:36.880Z,1023.51
2018-11-03T02:27:45.515Z,1023.49
2018-11-03T02:28:54.156Z,1023.49
2018-11-03T02:30:02.794Z,1023.52
2018-11-03T02:31:11.712Z,1023.5
2018-11-03T02:32:20.334Z,1023.51
2018-11-03T02:33:28.974Z,1023.48
2018-11-03T02:34:39.612Z,1023.49
2018-11-03T02:35:48.248Z,1023.49
2018-11-03T02:36:56.882Z,1023.51
2018-11-03T02:38:05.554Z,1023.46
2018-11-03T02:39:14.479Z,1023.51
2018-11-03T02:40:23.105Z,1023.54
2018-11-03T02:41:32.352Z,1023.51
2018-11-03T02:42:40.990Z,1023.53
2018-11-03T02:43:49.634Z,1023.52
2018-11-03T02:44:58.264Z,1023.5
2018-11-03T02:46:06.910Z,1023.5
2018-11-03T02:47:15.822Z,1023.52
2018-11-03T02:48:24.733Z,1023.54
2018-11-03T02:49:33.365Z,1023.51
2018-11-03T02:50:41.994Z,1023.53
2018-11-03T02:51:50.903Z,1023.55
2018-11-03T02:52:59.537Z,1023.55
2018-11-03T02:54:08.460Z,1023.55
2018-11-03T02:55:17.095Z,1023.56
2018-11-03T02:56:25.736Z,1023.59
2018-11-03T02:57:34.370Z,1023.57
2018-11-03T02:58:43.294Z,1023.6
2018-11-03T02:59:51.926Z,1023.62
2018-11-03T03:01:00.840Z,1023.64
2018-11-03T03:02:09.467Z,1023.64
2018-11-03T03:03:18.387Z,1023.69
2018-11-03T03:04:27.559Z,1023.64
2018-11-03T03:05:36.196Z,1023.66
2018-11-03T03:06:45.099Z,1023.73
2018-11-03T03:07:54.005Z,1023.77
2018-11-03T03:09:02.642Z,1023.79
2018-11-03T03:10:11.552Z,1023.82
2018-11-03T03:11:20.185Z,1023.82
2018-11-03T03:12:28.815Z,1023.8
2018-11-03T03:13:37.459Z,1023.79
2018-11-03T03:14:46.090Z,1023.79
2018-11-03T03:15:55.206Z,1023.79
2018-11-03T03:17:04.397Z,1023.8
2018-11-03T03:18:13.040Z,1023.82
2018-11-03T03:19:21.676Z,1023.8
2018-11-03T03:20:30.319Z,1023.85
2018-11-03T03:21:38.952Z,1023.83
2018-11-03T03:22:47.585Z,1023.87
2018-11-03T03:23:56.486Z,1023.87
2018-11-03T03:25:05.131Z,1023.89
2018-11-03T03:26:14.027Z,1023.87
2018-11-03T03:27:22.932Z,1023.93
2018-11-03T03:28:32.107Z,1023.87
2018-11-03T03:29:41.177Z,1023.88
2018-11-03T03:30:49.704Z,1023.92
2018-11-03T03:31:58.613Z,1023.92
2018-11-03T03:33:07.531Z,1023.91
2018-11-03T03:34:16.155Z,1023.92
2018-11-03T03:35:25.070Z,1023.92
2018-11-03T03:36:33.710Z,1023.89
2018-11-03T03:37:42.348Z,1023.91
2018-11-03T03:38:50.992Z,1023.92
2018-11-03T03:39:59.884Z,1023.9
2018-11-03T03:41:08.528Z,1023.87
2018-11-03T03:42:17.171Z,1023.86
2018-11-03T03:43:26.089Z,1023.89
2018-11-03T03:44:34.721Z,1023.88
2018-11-03T03:45:43.352Z,1023.85
2018-11-03T03:46:51.989Z,1023.86
2018-11-03T03:48:00.901Z,1023.91
2018-11-03T03:49:09.545Z,1023.94
2018-11-03T03:50:19.058Z,1023.98
2018-11-03T03:51:27.699Z,1023.98
2018-11-03T03:52:36.330Z,1024.01
2018-11-03T03:53:44.982Z,1023.98
2018-11-03T03:54:53.614Z,1024
2018-11-03T03:56:02.256Z,1024.01
2018-11-03T03:57:10.882Z,1024.03
2018-11-03T03:58:19.527Z,1024
2018-11-03T03:59:28.163Z,1024.02
2018-11-03T04:00:37.340Z,1023.99
2018-11-03T04:01:45.962Z,1024.02
2018-11-03T04:02:54.600Z,1024.02
2018-11-03T04:04:03.792Z,1024.06
2018-11-03T04:05:12.426Z,1024.05
2018-11-03T04:06:21.336Z,1024.03
2018-11-03T04:07:29.964Z,1024.11
2018-11-03T04:08:38.609Z,1024.12
2018-11-03T04:09:47.241Z,1024.11
2018-11-03T04:10:56.169Z,1024.12
2018-11-03T04:12:04.792Z,1024.16
2018-11-03T04:13:13.433Z,1024.09
2018-11-03T04:14:22.057Z,1024.1
2018-11-03T04:15:30.709Z,1024.07
2018-11-03T04:16:39.335Z,1024.07
2018-11-03T04:17:47.971Z,1024.02
2018-11-03T04:18:56.872Z,1023.99
2018-11-03T04:20:05.521Z,1024.02
2018-11-03T04:21:14.157Z,1023.92
2018-11-03T04:22:22.784Z,1023.95
2018-11-03T04:23:31.685Z,1023.91
2018-11-03T04:24:40.323Z,1023.97
2018-11-03T04:25:49.270Z,1023.97
2018-11-03T04:26:57.900Z,1023.94
2018-11-03T04:28:06.539Z,1023.95
2018-11-03T04:29:15.173Z,1023.94
2018-11-03T04:30:23.817Z,1023.91
2018-11-03T04:31:32.471Z,1023.95
2018-11-03T04:32:41.675Z,1023.91
2018-11-03T04:33:50.303Z,1023.95
2018-11-03T04:34:58.946Z,1023.92
2018-11-03T04:36:08.187Z,1023.95
2018-11-03T04:37:17.096Z,1023.95
2018-11-03T04:38:25.739Z,1024
2018-11-03T04:39:34.378Z,1023.97
2018-11-03T04:40:43.281Z,1023.92
2018-11-03T04:41:51.919Z,1023.93
2018-11-03T04:43:00.557Z,1023.91
2018-11-03T04:44:09.192Z,1023.93
2018-11-03T04:45:17.922Z,1023.95
2018-11-03T04:46:26.462Z,1023.95
2018-11-03T04:47:35.104Z,1023.97
2018-11-03T04:48:44.041Z,1023.96
2018-11-03T04:49:52.677Z,1023.96
2018-11-03T04:51:01.579Z,1023.98
2018-11-03T04:52:10.217Z,1023.97
2018-11-03T04:53:18.861Z,1023.92
2018-11-03T04:54:27.489Z,1023.94
2018-11-03T04:55:36.120Z,1023.92
2018-11-03T04:56:44.759Z,1023.92
2018-11-03T04:57:53.393Z,1023.9
2018-11-03T04:59:02.312Z,1023.85
2018-11-03T05:00:10.942Z,1023.83
2018-11-03T05:01:19.575Z,1023.81
2018-11-03T05:02:28.214Z,1023.8
2018-11-03T05:03:37.120Z,1023.82
2018-11-03T05:04:45.756Z,1023.87
2018-11-03T05:05:54.389Z,1023.89
2018-11-03T05:07:03.024Z,1023.88
2018-11-03T05:08:11.660Z,1023.9
2018-11-03T05:09:20.291Z,1023.86
2018-11-03T05:10:29.024Z,1023.87
2018-11-03T05:11:38.124Z,1023.87
2018-11-03T05:12:46.753Z,1023.85
2018-11-03T05:13:55.396Z,1023.94
2018-11-03T05:15:04.027Z,1023.91
2018-11-03T05:16:12.665Z,1023.95
2018-11-03T05:17:21.570Z,1023.93
2018-11-03T05:18:30.207Z,1023.95
2018-11-03T05:19:38.846Z,1023.96
2018-11-03T05:20:47.468Z,1023.92
2018-11-03T05:21:56.100Z,1024.03
2018-11-03T05:23:05.008Z,1024.05
2018-11-03T05:24:13.648Z,1024.12
2018-11-03T05:25:22.294Z,1024.1
2018-11-03T05:26:30.939Z,1024.14
2018-11-03T05:27:39.816Z,1024.18
2018-11-03T05:28:48.456Z,1024.2
2018-11-03T05:29:57.087Z,1024.19
2018-11-03T05:31:05.794Z,1024.16
2018-11-03T05:32:14.354Z,1024.18
2018-11-03T05:33:22.993Z,1024.22
2018-11-03T05:34:31.628Z,1024.17
2018-11-03T05:35:40.260Z,1024.2
2018-11-03T05:36:48.892Z,1024.2
2018-11-03T05:37:57.522Z,1024.17
2018-11-03T05:39:06.208Z,1024.16
2018-11-03T05:40:15.537Z,1024.16
2018-11-03T05:41:24.173Z,1024.09
2018-11-03T05:42:32.800Z,1024.07
2018-11-03T05:43:41.441Z,1024.07
2018-11-03T05:44:50.075Z,1024.03
2018-11-03T05:45:58.710Z,1024.04
2018-11-03T05:47:07.339Z,1023.99
2018-11-03T05:48:16.628Z,1024.01
2018-11-03T05:49:25.259Z,1024
2018-11-03T05:50:33.898Z,1023.99
2018-11-03T05:51:42.949Z,1024.02
2018-11-03T05:52:51.587Z,1024.04
2018-11-03T05:54:00.220Z,1024
2018-11-03T05:55:08.863Z,1024.06
2018-11-03T05:56:17.493Z,1024.08
2018-11-03T05:57:26.121Z,1024.04
2018-11-03T05:58:34.763Z,1024.06
2018-11-03T05:59:43.391Z,1024.09
2018-11-03T06:00:52.032Z,1024.05
2018-11-03T06:02:00.923Z,1024.04
2018-11-03T06:03:09.557Z,1024.09
2018-11-03T06:04:18.192Z,1024.1
2018-11-03T06:05:26.832Z,1024.08
2018-11-03T06:06:35.463Z,1024.11
2018-11-03T06:07:44.099Z,1024.12
2018-11-03T06:08:52.808Z,1024.19
2018-11-03T06:10:02.288Z,1024.19
2018-11-03T06:11:11.189Z,1024.2
2018-11-03T06:12:19.823Z,1024.25
2018-11-03T06:13:28.726Z,1024.29
2018-11-03T06:14:37.361Z,1024.28
2018-11-03T06:15:46.001Z,1024.31
2018-11-03T06:16:54.634Z,1024.3
2018-11-03T06:18:03.585Z,1024.32
2018-11-03T06:19:12.222Z,1024.37
2018-11-03T06:20:20.897Z,1024.37
2018-11-03T06:21:29.800Z,1024.38
2018-11-03T06:22:38.657Z,1024.37
2018-11-03T06:23:49.313Z,1024.33
2018-11-03T06:24:58.226Z,1024.36
2018-11-03T06:26:06.858Z,1024.36
2018-11-03T06:27:15.492Z,1024.41
2018-11-03T06:28:24.122Z,1024.43
2018-11-03T06:29:33.057Z,1024.44
2018-11-03T06:30:41.687Z,1024.44
2018-11-03T06:31:50.331Z,1024.41
2018-11-03T06:32:58.969Z,1024.41
2018-11-03T06:34:07.595Z,1024.4
2018-11-03T06:35:16.516Z,1024.41
2018-11-03T06:36:25.636Z,1024.4
2018-11-03T06:37:34.285Z,1024.42
2018-11-03T06:38:42.925Z,1024.48
2018-11-03T06:39:51.550Z,1024.56
2018-11-03T06:41:00.181Z,1024.61
2018-11-03T06:42:08.819Z,1024.65
2018-11-03T06:43:17.446Z,1024.64
2018-11-03T06:44:26.349Z,1024.64
2018-11-03T06:45:34.981Z,1024.59
2018-11-03T06:46:43.643Z,1024.6
2018-11-03T06:47:52.264Z,1024.58
2018-11-03T06:49:00.891Z,1024.56
2018-11-03T06:50:09.522Z,1024.55
2018-11-03T06:51:18.155Z,1024.58
2018-11-03T06:52:26.813Z,1024.58
2018-11-03T06:53:35.442Z,1024.63
2018-11-03T06:54:44.071Z,1024.63
2018-11-03T06:55:52.989Z,1024.62
2018-11-03T06:57:01.623Z,1024.62
2018-11-03T06:58:10.255Z,1024.58
2018-11-03T06:59:19.391Z,1024.62
2018-11-03T07:00:28.019Z,1024.63
2018-11-03T07:01:36.665Z,1024.62
2018-11-03T07:02:45.298Z,1024.6
2018-11-03T07:03:53.965Z,1024.62
2018-11-03T07:05:02.600Z,1024.61
2018-11-03T07:06:11.203Z,1024.64
2018-11-03T07:07:19.868Z,1024.61
2018-11-03T07:08:28.818Z,1024.62
2018-11-03T07:09:37.405Z,1024.62
2018-11-03T07:10:46.039Z,1024.65
2018-11-03T07:11:54.725Z,1024.65
2018-11-03T07:13:03.335Z,1024.67
2018-11-03T07:14:11.945Z,1024.65
2018-11-03T07:15:20.573Z,1024.71
2018-11-03T07:16:29.486Z,1024.71
2018-11-03T07:17:38.116Z,1024.69
2018-11-03T07:18:46.760Z,1024.69
2018-11-03T07:19:55.393Z,1024.68
2018-11-03T07:21:04.298Z,1024.7
2018-11-03T07:22:12.931Z,1024.77
2018-11-03T07:23:21.575Z,1024.76
2018-11-03T07:24:30.209Z,1024.75
2018-11-03T07:25:38.838Z,1024.74
2018-11-03T07:26:47.739Z,1024.77
2018-11-03T07:27:56.638Z,1024.78
2018-11-03T07:29:05.281Z,1024.71
2018-11-03T07:30:13.913Z,1024.73
2018-11-03T07:31:22.816Z,1024.74
2018-11-03T07:32:31.745Z,1024.77
2018-11-03T07:33:40.366Z,1024.79
2018-11-03T07:34:49.279Z,1024.81
2018-11-03T07:35:57.909Z,1024.79
2018-11-03T07:37:06.554Z,1024.82
2018-11-03T07:38:15.182Z,1024.77
2018-11-03T07:39:23.819Z,1024.79
2018-11-03T07:40:32.452Z,1024.83
2018-11-03T07:41:41.212Z,1024.79
2018-11-03T07:42:49.835Z,1024.77
2018-11-03T07:43:58.363Z,1024.78
2018-11-03T07:45:06.996Z,1024.78
2018-11-03T07:46:15.626Z,1024.77
2018-11-03T07:47:24.268Z,1024.77
2018-11-03T07:48:32.985Z,1024.75
2018-11-03T07:49:42.240Z,1024.75
2018-11-03T07:50:50.868Z,1024.69
2018-11-03T07:51:59.511Z,1024.68
2018-11-03T07:53:08.142Z,1024.68
2018-11-03T07:54:17.059Z,1024.69
2018-11-03T07:55:25.692Z,1024.68
2018-11-03T07:56:34.330Z,1024.7
2018-11-03T07:57:42.964Z,1024.63
2018-11-03T07:58:51.602Z,1024.64
2018-11-03T08:00:00.232Z,1024.61
2018-11-03T08:01:08.874Z,1024.64
2018-11-03T08:02:17.512Z,1024.65
2018-11-03T08:03:26.151Z,1024.7
2018-11-03T08:04:35.059Z,1024.7
2018-11-03T08:05:43.687Z,1024.71
2018-11-03T08:06:52.626Z,1024.69
2018-11-03T08:08:01.261Z,1024.67
2018-11-03T08:09:10.054Z,1024.65
2018-11-03T08:10:18.536Z,1024.64
2018-11-03T08:11:27.179Z,1024.66
2018-11-03T08:12:35.810Z,1024.62
2018-11-03T08:13:44.454Z,1024.63
2018-11-03T08:14:53.079Z,1024.61
2018-11-03T08:16:01.718Z,1024.58
2018-11-03T08:17:10.350Z,1024.62
2018-11-03T08:18:19.027Z,1024.58
2018-11-03T08:19:28.486Z,1024.63
2018-11-03T08:20:37.078Z,1024.65
2018-11-03T08:21:45.712Z,1024.68
2018-11-03T08:22:54.350Z,1024.65
2018-11-03T08:24:03.128Z,1024.61
2018-11-03T08:25:11.650Z,1024.6
2018-11-03T08:26:20.549Z,1024.57
2018-11-03T08:27:29.177Z,1024.62
2018-11-03T08:28:38.105Z,1024.63
2018-11-03T08:29:46.741Z,1024.62
2018-11-03T08:30:55.377Z,1024.65
2018-11-03T08:32:04.014Z,1024.61
2018-11-03T08:33:12.650Z,1024.6
2018-11-03T08:34:21.307Z,1024.62
2018-11-03T08:35:29.924Z,1024.61
2018-11-03T08:36:38.555Z,1024.66
2018-11-03T08:37:47.196Z,1024.66
2018-11-03T08:38:55.833Z,1024.66
2018-11-03T08:40:04.733Z,1024.67
2018-11-03T08:41:13.646Z,1024.66
2018-11-03T08:42:22.549Z,1024.67
2018-11-03T08:43:31.186Z,1024.66
2018-11-03T08:44:39.821Z,1024.65
2018-11-03T08:45:48.462Z,1024.66
2018-11-03T08:46:57.097Z,1024.67
2018-11-03T08:48:06.070Z,1024.62
2018-11-03T08:49:14.638Z,1024.61
2018-11-03T08:50:23.280Z,1024.65
2018-11-03T08:51:31.913Z,1024.64
2018-11-03T08:52:40.550Z,1024.59
2018-11-03T08:53:49.188Z,1024.59
2018-11-03T08:54:58.097Z,1024.59
2018-11-03T08:56:06.733Z,1024.61
2018-11-03T08:57:15.369Z,1024.57
2018-11-03T08:58:24.006Z,1024.54
2018-11-03T08:59:32.746Z,1024.54
2018-11-03T09:00:41.660Z,1024.54
2018-11-03T09:01:50.295Z,1024.54
2018-11-03T09:02:58.933Z,1024.56
2018-11-03T09:04:07.835Z,1024.58
2018-11-03T09:05:16.477Z,1024.52
2018-11-03T09:06:25.503Z,1024.52
2018-11-03T09:07:34.116Z,1024.54
2018-11-03T09:08:42.748Z,1024.6
2018-11-03T09:09:51.390Z,1024.59
2018-11-03T09:11:00.023Z,1024.56
2018-11-03T09:12:08.662Z,1024.57
2018-11-03T09:13:17.292Z,1024.54
2018-11-03T09:14:26.007Z,1024.58
2018-11-03T09:15:34.931Z,1024.58
2018-11-03T09:16:43.550Z,1024.56
2018-11-03T09:17:52.460Z,1024.55
2018-11-03T09:19:01.092Z,1024.48
2018-11-03T09:20:09.740Z,1024.46
2018-11-03T09:21:18.363Z,1024.39
2018-11-03T09:22:27.037Z,1024.38
2018-11-03T09:23:35.639Z,1024.37
2018-11-03T09:24:44.581Z,1024.39
2018-11-03T09:25:53.247Z,1024.38
2018-11-03T09:27:01.860Z,1024.36
2018-11-03T09:28:10.491Z,1024.34
2018-11-03T09:29:19.133Z,1024.34
2018-11-03T09:30:27.768Z,1024.33
2018-11-03T09:31:36.441Z,1024.34
2018-11-03T09:32:45.047Z,1024.36
2018-11-03T09:33:53.683Z,1024.33
2018-11-03T09:35:02.315Z,1024.35
2018-11-03T09:36:10.950Z,1024.3
2018-11-03T09:37:20.136Z,1024.28
2018-11-03T09:38:29.057Z,1024.28
2018-11-03T09:39:38.328Z,1024.28
2018-11-03T09:40:46.961Z,1024.28
2018-11-03T09:41:55.908Z,1024.27
2018-11-03T09:43:04.663Z,1024.27
2018-11-03T09:44:13.208Z,1024.31
2018-11-03T09:45:21.816Z,1024.31
2018-11-03T09:46:30.460Z,1024.3
2018-11-03T09:47:39.095Z,1024.34
2018-11-03T09:48:48.014Z,1024.36
2018-11-03T09:49:56.643Z,1024.29
2018-11-03T09:51:05.291Z,1024.35
2018-11-03T09:52:14.358Z,1024.34
2018-11-03T09:53:23.002Z,1024.31
2018-11-03T09:54:31.641Z,1024.34
2018-11-03T09:55:40.275Z,1024.31
2018-11-03T09:56:49.071Z,1024.34
2018-11-03T09:57:57.552Z,1024.33
2018-11-03T09:59:06.201Z,1024.34
2018-11-03T10:00:14.841Z,1024.35
2018-11-03T10:01:23.486Z,1024.35
2018-11-03T10:02:32.118Z,1024.4
2018-11-03T10:03:40.759Z,1024.4
2018-11-03T10:04:49.390Z,1024.38
2018-11-03T10:05:58.300Z,1024.4
2018-11-03T10:07:06.940Z,1024.42
2018-11-03T10:08:15.584Z,1024.38
2018-11-03T10:09:24.218Z,1024.4
2018-11-03T10:10:32.851Z,1024.38
2018-11-03T10:11:41.484Z,1024.38
2018-11-03T10:12:50.120Z,1024.38
2018-11-03T10:13:58.768Z,1024.38
2018-11-03T10:15:07.405Z,1024.35
2018-11-03T10:16:16.316Z,1024.35
2018-11-03T10:17:24.941Z,1024.35
2018-11-03T10:18:33.595Z,1024.31
2018-11-03T10:19:42.232Z,1024.28
2018-11-03T10:20:51.443Z,1024.3
2018-11-03T10:22:00.086Z,1024.3
2018-11-03T10:23:08.729Z,1024.29
2018-11-03T10:24:17.632Z,1024.26
2018-11-03T10:25:26.272Z,1024.28
2018-11-03T10:26:34.914Z,1024.29
2018-11-03T10:27:43.551Z,1024.29
2018-11-03T10:28:52.189Z,1024.32
2018-11-03T10:30:00.834Z,1024.32
2018-11-03T10:31:09.474Z,1024.28
2018-11-03T10:32:18.107Z,1024.22
2018-11-03T10:33:26.779Z,1024.21
2018-11-03T10:34:35.388Z,1024.21
2018-11-03T10:35:44.365Z,1024.17
2018-11-03T10:36:52.934Z,1024.17
2018-11-03T10:38:01.583Z,1024.17
2018-11-03T10:39:10.218Z,1024.19
2018-11-03T10:40:18.860Z,1024.18
2018-11-03T10:41:27.764Z,1024.15
2018-11-03T10:42:36.410Z,1024.21
2018-11-03T10:43:45.046Z,1024.21
2018-11-03T10:44:53.690Z,1024.2
2018-11-03T10:46:02.383Z,1024.18
2018-11-03T10:47:10.967Z,1024.19
2018-11-03T10:48:19.604Z,1024.16
2018-11-03T10:49:28.239Z,1024.16
2018-11-03T10:50:36.887Z,1024.1
2018-11-03T10:51:45.842Z,1024.1
2018-11-03T10:52:54.477Z,1024.07
2018-11-03T10:54:03.111Z,1024.08
2018-11-03T10:55:11.754Z,1024.06
2018-11-03T10:56:20.394Z,1024.11
2018-11-03T10:57:29.578Z,1024.11
2018-11-03T10:58:38.215Z,1024.09
2018-11-03T10:59:47.128Z,1024.14
2018-11-03T11:00:56.039Z,1024.08
2018-11-03T11:02:04.681Z,1024.09
2018-11-03T11:03:13.317Z,1024.06
2018-11-03T11:04:21.959Z,1024.04
2018-11-03T11:05:30.612Z,1024.12
2018-11-03T11:06:39.246Z,1024.08
2018-11-03T11:07:48.164Z,1024.08
2018-11-03T11:08:56.781Z,1024.05
2018-11-03T11:10:05.687Z,1024.05
2018-11-03T11:11:14.323Z,1024.04
2018-11-03T11:12:22.965Z,1024.03
2018-11-03T11:13:31.601Z,1024.03
2018-11-03T11:14:40.241Z,1024.04
2018-11-03T11:15:48.976Z,1024.04
2018-11-03T11:16:57.633Z,1024.03
2018-11-03T11:18:06.679Z,1024.02
2018-11-03T11:19:15.327Z,1024.01
2018-11-03T11:20:23.963Z,1024.04
2018-11-03T11:21:32.610Z,1024.05
2018-11-03T11:22:41.512Z,1024.05
2018-11-03T11:23:50.158Z,1024.06
2018-11-03T11:24:59.201Z,1024.02
2018-11-03T11:26:07.714Z,1023.99
2018-11-03T11:27:16.347Z,1023.98
2018-11-03T11:28:24.986Z,1023.92
2018-11-03T11:29:33.623Z,1023.9
2018-11-03T11:30:42.265Z,1023.9
2018-11-03T11:31:50.899Z,1023.89
2018-11-03T11:32:59.549Z,1023.89
2018-11-03T11:34:08.451Z,1023.88
2018-11-03T11:35:17.093Z,1023.82
2018-11-03T11:36:25.729Z,1023.84
2018-11-03T11:37:34.750Z,1023.83
2018-11-03T11:38:43.964Z,1023.81
2018-11-03T11:39:52.467Z,1023.8
2018-11-03T11:41:01.110Z,1023.79
2018-11-03T11:42:09.745Z,1023.77
2018-11-03T11:43:18.507Z,1023.73
2018-11-03T11:44:27.021Z,1023.73
2018-11-03T11:45:35.672Z,1023.67
2018-11-03T11:46:44.305Z,1023.66
2018-11-03T11:47:53.211Z,1023.68
2018-11-03T11:49:01.848Z,1023.68
2018-11-03T11:50:10.493Z,1023.67
2018-11-03T11:51:19.131Z,1023.68
2018-11-03T11:52:28.034Z,1023.68
2018-11-03T11:53:36.669Z,1023.66
2018-11-03T11:54:45.390Z,1023.64
2018-11-03T11:55:53.952Z,1023.63
2018-11-03T11:57:02.588Z,1023.62
2018-11-03T11:58:11.264Z,1023.59
2018-11-03T11:59:20.142Z,1023.67
2018-11-03T12:00:28.820Z,1023.64
2018-11-03T12:01:37.816Z,1023.65
2018-11-03T12:02:46.458Z,1023.6
2018-11-03T12:03:55.370Z,1023.61
2018-11-03T12:05:04.007Z,1023.56
2018-11-03T12:06:12.644Z,1023.56
2018-11-03T12:07:21.289Z,1023.56
2018-11-03T12:08:29.923Z,1023.54
2018-11-03T12:09:38.564Z,1023.49
2018-11-03T12:10:47.205Z,1023.48
2018-11-03T12:11:55.857Z,1023.48
2018-11-03T12:13:04.489Z,1023.47
2018-11-03T12:14:13.133Z,1023.45
2018-11-03T12:15:21.770Z,1023.44
2018-11-03T12:16:30.419Z,1023.45
2018-11-03T12:17:39.882Z,1023.41
2018-11-03T12:18:48.522Z,1023.4
2018-11-03T12:19:57.214Z,1023.4
2018-11-03T12:21:05.796Z,1023.35
2018-11-03T12:22:14.444Z,1023.37
2018-11-03T12:23:23.078Z,1023.35
2018-11-03T12:24:31.731Z,1023.34
2018-11-03T12:25:40.549Z,1023.35
2018-11-03T12:26:49.579Z,1023.37
2018-11-03T12:27:58.474Z,1023.37
2018-11-03T12:29:07.130Z,1023.38
2018-11-03T12:30:15.762Z,1023.34
2018-11-03T12:31:24.409Z,1023.38
2018-11-03T12:32:33.047Z,1023.36
2018-11-03T12:33:41.690Z,1023.36
2018-11-03T12:34:50.351Z,1023.4
2018-11-03T12:35:59.050Z,1023.36
2018-11-03T12:37:08.916Z,1023.29
2018-11-03T12:38:18.422Z,1023.28
2018-11-03T12:39:27.636Z,1023.24
2018-11-03T12:40:37.172Z,1023.21
2018-11-03T12:41:46.174Z,1023.16
2018-11-03T12:42:54.809Z,1023.2
2018-11-03T12:44:03.484Z,1023.18
2018-11-03T12:45:12.084Z,1023.18
2018-11-03T12:46:20.727Z,1023.16
2018-11-03T12:47:29.361Z,1023.15
2018-11-03T12:48:38.010Z,1023.15
2018-11-03T12:49:46.642Z,1023.13
2018-11-03T12:50:55.286Z,1023.16
2018-11-03T12:52:03.926Z,1023.19
2018-11-03T12:53:12.579Z,1023.13
2018-11-03T12:54:21.218Z,1023.11
2018-11-03T12:55:30.120Z,1023.07
2018-11-03T12:56:38.756Z,1023.05
2018-11-03T12:57:47.395Z,1023.05
2018-11-03T12:58:56.097Z,1023.01
2018-11-03T13:00:04.684Z,1023.01
2018-11-03T13:01:13.343Z,1023.02
2018-11-03T13:02:22.232Z,1023.01
2018-11-03T13:03:30.877Z,1022.99
2018-11-03T13:04:39.796Z,1023.02
2018-11-03T13:05:48.444Z,1023.02
2018-11-03T13:06:57.134Z,1023
2018-11-03T13:08:05.723Z,1023
2018-11-03T13:09:14.376Z,1022.94
2018-11-03T13:10:23.006Z,1022.97
2018-11-03T13:11:31.637Z,1022.92
2018-11-03T13:12:40.545Z,1022.92
2018-11-03T13:13:49.187Z,1022.94
2018-11-03T13:14:57.828Z,1022.93
2018-11-03T13:16:06.475Z,1022.9
2018-11-03T13:17:15.105Z,1022.89
2018-11-03T13:18:23.748Z,1022.88
2018-11-03T13:19:32.384Z,1022.83
2018-11-03T13:20:41.033Z,1022.82
2018-11-03T13:21:49.670Z,1022.83
2018-11-03T13:22:58.437Z,1022.84
2018-11-03T13:24:06.950Z,1022.82
2018-11-03T13:25:15.585Z,1022.82
2018-11-03T13:26:24.228Z,1022.78
2018-11-03T13:27:32.868Z,1022.77
2018-11-03T13:28:41.774Z,1022.73
2018-11-03T13:29:50.679Z,1022.76
2018-11-03T13:30:59.320Z,1022.78
2018-11-03T13:32:07.961Z,1022.82
2018-11-03T13:33:16.603Z,1022.8
2018-11-03T13:34:25.511Z,1022.79
2018-11-03T13:35:34.148Z,1022.78
2018-11-03T13:36:43.050Z,1022.76
2018-11-03T13:37:51.690Z,1022.77
2018-11-03T13:39:00.335Z,1022.77
2018-11-03T13:40:08.971Z,1022.76
2018-11-03T13:41:17.614Z,1022.76
2018-11-03T13:42:26.251Z,1022.75
2018-11-03T13:43:34.903Z,1022.68
2018-11-03T13:44:43.806Z,1022.65
2018-11-03T13:45:52.454Z,1022.62
2018-11-03T13:47:01.105Z,1022.67
2018-11-03T13:48:09.736Z,1022.67
2018-11-03T13:49:18.370Z,1022.65
2018-11-03T13:50:27.011Z,1022.66
2018-11-03T13:51:35.912Z,1022.67
2018-11-03T13:52:44.553Z,1022.65
2018-11-03T13:53:53.460Z,1022.62